sensor_id;sensor_type;location;lat;lon;timestamp;pressure;altitude;pressure_sealevel;temperature;humidity
3664;BME280;1848;51.042;7.066;2022-10-31T00:00:27;53350.72;;;-147.17;80.85
3664;BME280;1848;51.042;7.066;2022-10-31T00:02:53;53348.69;;;-147.17;80.72
3664;BME280;1848;51.042;7.066;2022-10-31T00:05:20;53348.69;;;-147.17;81.20
3664;BME280;1848;51.042;7.066;2022-10-31T00:07:47;53350.72;;;-147.17;81.08
3664;BME280;1848;51.042;7.066;2022-10-31T00:10:13;53350.72;;;-147.17;81.08
3664;BME280;1848;51.042;7.066;2022-10-31T00:12:39;53348.69;;;-147.17;81.06
3664;BME280;1848;51.042;7.066;2022-10-31T00:15:06;53348.69;;;-147.17;81.29
3664;BME280;1848;51.042;7.066;2022-10-31T00:17:35;53348.69;;;-147.17;81.08
3664;BME280;1848;51.042;7.066;2022-10-31T00:20:02;53348.69;;;-147.17;81.16
3664;BME280;1848;51.042;7.066;2022-10-31T00:22:29;53348.69;;;-147.17;81.20
3664;BME280;1848;51.042;7.066;2022-10-31T00:24:55;53350.72;;;-147.17;81.22
3664;BME280;1848;51.042;7.066;2022-10-31T00:27:22;53346.66;;;-147.17;81.38
3664;BME280;1848;51.042;7.066;2022-10-31T00:29:48;53350.72;;;-147.17;82.02
3664;BME280;1848;51.042;7.066;2022-10-31T00:32:14;53350.72;;;-147.17;82.37
3664;BME280;1848;51.042;7.066;2022-10-31T00:34:41;53348.69;;;-147.17;82.43
3664;BME280;1848;51.042;7.066;2022-10-31T00:37:07;53348.69;;;-147.17;82.50
3664;BME280;1848;51.042;7.066;2022-10-31T00:39:33;53350.72;;;-147.17;82.95
3664;BME280;1848;51.042;7.066;2022-10-31T00:42:00;53348.69;;;-147.17;83.29
3664;BME280;1848;51.042;7.066;2022-10-31T00:44:26;53346.66;;;-147.17;83.25
3664;BME280;1848;51.042;7.066;2022-10-31T00:46:52;53348.69;;;-147.17;83.45
3664;BME280;1848;51.042;7.066;2022-10-31T00:49:19;53350.72;;;-147.17;83.25
3664;BME280;1848;51.042;7.066;2022-10-31T00:51:45;53348.69;;;-147.17;83.36
3664;BME280;1848;51.042;7.066;2022-10-31T00:54:11;53348.69;;;-147.17;83.66
3664;BME280;1848;51.042;7.066;2022-10-31T00:56:38;53350.72;;;-147.17;83.60
3664;BME280;1848;51.042;7.066;2022-10-31T00:59:04;53348.69;;;-147.17;83.76
3664;BME280;1848;51.042;7.066;2022-10-31T01:01:30;53348.69;;;-147.17;83.60
3664;BME280;1848;51.042;7.066;2022-10-31T01:03:57;53348.69;;;-147.17;83.38
3664;BME280;1848;51.042;7.066;2022-10-31T01:06:23;53350.72;;;-147.17;83.34
3664;BME280;1848;51.042;7.066;2022-10-31T01:08:50;53350.72;;;-147.17;82.76
3664;BME280;1848;51.042;7.066;2022-10-31T01:11:20;53348.69;;;-147.17;83.02
3664;BME280;1848;51.042;7.066;2022-10-31T01:13:49;53350.72;;;-147.17;82.84
3664;BME280;1848;51.042;7.066;2022-10-31T01:16:18;53348.69;;;-147.17;82.79
3664;BME280;1848;51.042;7.066;2022-10-31T01:18:44;53346.66;;;-147.17;82.62
3664;BME280;1848;51.042;7.066;2022-10-31T01:21:12;53348.69;;;-147.17;82.83
3664;BME280;1848;51.042;7.066;2022-10-31T01:23:39;53350.72;;;-147.17;82.98
3664;BME280;1848;51.042;7.066;2022-10-31T01:26:09;53350.72;;;-147.17;83.16
3664;BME280;1848;51.042;7.066;2022-10-31T01:28:38;53348.69;;;-147.17;82.73
3664;BME280;1848;51.042;7.066;2022-10-31T01:31:06;53348.69;;;-147.17;83.09
3664;BME280;1848;51.042;7.066;2022-10-31T01:33:33;53348.69;;;-147.17;82.86
3664;BME280;1848;51.042;7.066;2022-10-31T01:36:00;53348.69;;;-147.17;82.96
3664;BME280;1848;51.042;7.066;2022-10-31T01:38:27;53348.69;;;-147.17;83.36
3664;BME280;1848;51.042;7.066;2022-10-31T01:40:53;53352.75;;;-147.17;83.14
3664;BME280;1848;51.042;7.066;2022-10-31T01:43:20;53348.69;;;-147.17;83.28
3664;BME280;1848;51.042;7.066;2022-10-31T01:45:53;53350.72;;;-147.17;83.25
3664;BME280;1848;51.042;7.066;2022-10-31T01:48:24;53350.72;;;-147.17;83.34
3664;BME280;1848;51.042;7.066;2022-10-31T01:50:54;53348.69;;;-147.17;83.36
3664;BME280;1848;51.042;7.066;2022-10-31T01:53:22;53350.72;;;-147.17;83.82
3664;BME280;1848;51.042;7.066;2022-10-31T01:55:52;53348.69;;;-147.17;83.40
3664;BME280;1848;51.042;7.066;2022-10-31T01:58:23;53348.69;;;-147.17;83.21
3664;BME280;1848;51.042;7.066;2022-10-31T02:00:55;53348.69;;;-147.17;83.75
3664;BME280;1848;51.042;7.066;2022-10-31T02:03:25;53346.66;;;-147.17;83.84
3664;BME280;1848;51.042;7.066;2022-10-31T02:05:56;53348.69;;;-147.17;83.46
3664;BME280;1848;51.042;7.066;2022-10-31T02:08:28;53348.69;;;-147.17;83.79
3664;BME280;1848;51.042;7.066;2022-10-31T02:10:57;53346.66;;;-147.17;83.52
3664;BME280;1848;51.042;7.066;2022-10-31T02:13:24;53348.69;;;-147.17;83.45
3664;BME280;1848;51.042;7.066;2022-10-31T02:15:58;53346.66;;;-147.17;83.49
3664;BME280;1848;51.042;7.066;2022-10-31T02:18:26;53346.66;;;-147.17;83.59
3664;BME280;1848;51.042;7.066;2022-10-31T02:20:58;53348.69;;;-147.17;83.84
3664;BME280;1848;51.042;7.066;2022-10-31T02:23:52;53350.72;;;-147.17;83.90
3664;BME280;1848;51.042;7.066;2022-10-31T02:26:37;53348.69;;;-147.17;83.96
3664;BME280;1848;51.042;7.066;2022-10-31T02:32:05;53350.72;;;-147.17;84.36
3664;BME280;1848;51.042;7.066;2022-10-31T02:34:57;53383.13;;;-147.17;83.99
3664;BME280;1848;51.042;7.066;2022-10-31T02:37:46;53346.66;;;-147.17;83.89
3664;BME280;1848;51.042;7.066;2022-10-31T02:40:24;53383.13;;;-147.17;83.64
3664;BME280;1848;51.042;7.066;2022-10-31T02:43:06;53350.72;;;-147.17;84.39
3664;BME280;1848;51.042;7.066;2022-10-31T02:46:07;53350.72;;;-147.17;84.93
3664;BME280;1848;51.042;7.066;2022-10-31T02:48:37;53350.72;;;-147.17;85.10
3664;BME280;1848;51.042;7.066;2022-10-31T02:51:05;53348.69;;;-147.17;85.43
3664;BME280;1848;51.042;7.066;2022-10-31T02:53:34;53348.69;;;-147.17;85.59
3664;BME280;1848;51.042;7.066;2022-10-31T02:58:40;53352.75;;;-147.17;85.58
3664;BME280;1848;51.042;7.066;2022-10-31T03:01:19;53350.72;;;-147.17;85.24
3664;BME280;1848;51.042;7.066;2022-10-31T03:07:20;53348.69;;;-147.17;85.16
3664;BME280;1848;51.042;7.066;2022-10-31T03:12:32;53346.66;;;-147.17;85.50
3664;BME280;1848;51.042;7.066;2022-10-31T03:15:32;53346.66;;;-147.17;85.84
3664;BME280;1848;51.042;7.066;2022-10-31T03:18:14;53346.66;;;-147.17;86.20
3664;BME280;1848;51.042;7.066;2022-10-31T03:20:54;53346.66;;;-147.17;86.43
3664;BME280;1848;51.042;7.066;2022-10-31T03:23:22;53346.66;;;-147.17;86.17
3664;BME280;1848;51.042;7.066;2022-10-31T03:25:52;53348.69;;;-147.17;86.49
3664;BME280;1848;51.042;7.066;2022-10-31T03:28:24;53350.72;;;-147.17;86.40
3664;BME280;1848;51.042;7.066;2022-10-31T03:30:54;53348.69;;;-147.17;86.14
3664;BME280;1848;51.042;7.066;2022-10-31T03:33:26;53350.72;;;-147.17;86.51
3664;BME280;1848;51.042;7.066;2022-10-31T03:35:55;53348.69;;;-147.17;86.61
3664;BME280;1848;51.042;7.066;2022-10-31T03:38:23;53352.75;;;-147.17;86.63
3664;BME280;1848;51.042;7.066;2022-10-31T03:40:51;53350.72;;;-147.17;86.32
3664;BME280;1848;51.042;7.066;2022-10-31T03:43:22;53350.72;;;-147.17;86.48
3664;BME280;1848;51.042;7.066;2022-10-31T03:45:50;53352.75;;;-147.17;86.41
3664;BME280;1848;51.042;7.066;2022-10-31T03:48:18;53346.66;;;-147.17;86.32
3664;BME280;1848;51.042;7.066;2022-10-31T03:50:58;53348.69;;;-147.17;85.94
3664;BME280;1848;51.042;7.066;2022-10-31T03:56:02;53350.72;;;-147.17;86.46
3664;BME280;1848;51.042;7.066;2022-10-31T03:58:36;53350.72;;;-147.17;86.17
3664;BME280;1848;51.042;7.066;2022-10-31T04:01:11;53348.69;;;-147.17;86.68
3664;BME280;1848;51.042;7.066;2022-10-31T04:03:39;53346.66;;;-147.17;86.41
3664;BME280;1848;51.042;7.066;2022-10-31T04:06:08;53348.69;;;-147.17;86.25
3664;BME280;1848;51.042;7.066;2022-10-31T04:08:41;53346.66;;;-147.17;86.34
3664;BME280;1848;51.042;7.066;2022-10-31T04:11:09;53348.69;;;-147.17;86.11
3664;BME280;1848;51.042;7.066;2022-10-31T04:13:39;53346.66;;;-147.17;86.09
3664;BME280;1848;51.042;7.066;2022-10-31T04:16:06;53346.66;;;-147.17;86.43
3664;BME280;1848;51.042;7.066;2022-10-31T04:18:39;53381.09;;;-147.17;85.93
3664;BME280;1848;51.042;7.066;2022-10-31T04:21:07;53350.72;;;-147.17;86.07
3664;BME280;1848;51.042;7.066;2022-10-31T04:23:35;53350.72;;;-147.17;86.09
3664;BME280;1848;51.042;7.066;2022-10-31T04:26:02;53350.72;;;-147.17;86.02
3664;BME280;1848;51.042;7.066;2022-10-31T04:28:28;53383.13;;;-147.17;86.17
3664;BME280;1848;51.042;7.066;2022-10-31T04:30:55;53350.72;;;-147.17;85.96
3664;BME280;1848;51.042;7.066;2022-10-31T04:33:21;53350.72;;;-147.17;86.02
3664;BME280;1848;51.042;7.066;2022-10-31T04:35:48;53348.69;;;-147.17;85.59
3664;BME280;1848;51.042;7.066;2022-10-31T04:38:14;53348.69;;;-147.17;85.62
3664;BME280;1848;51.042;7.066;2022-10-31T04:40:41;53350.72;;;-147.17;85.84
3664;BME280;1848;51.042;7.066;2022-10-31T04:43:07;53348.69;;;-147.17;85.89
3664;BME280;1848;51.042;7.066;2022-10-31T04:45:33;53350.72;;;-147.17;85.93
3664;BME280;1848;51.042;7.066;2022-10-31T04:48:00;53350.72;;;-147.17;85.90
3664;BME280;1848;51.042;7.066;2022-10-31T04:50:27;53348.69;;;-147.17;86.02
3664;BME280;1848;51.042;7.066;2022-10-31T04:52:53;53350.72;;;-147.17;85.96
3664;BME280;1848;51.042;7.066;2022-10-31T04:55:20;53348.69;;;-147.17;86.33
3664;BME280;1848;51.042;7.066;2022-10-31T04:57:48;53350.72;;;-147.17;86.17
3664;BME280;1848;51.042;7.066;2022-10-31T05:00:17;53348.69;;;-147.17;86.27
3664;BME280;1848;51.042;7.066;2022-10-31T05:02:51;53383.13;;;-147.17;85.98
3664;BME280;1848;51.042;7.066;2022-10-31T05:05:20;53348.69;;;-147.17;86.39
3664;BME280;1848;51.042;7.066;2022-10-31T05:07:48;53348.69;;;-147.17;86.73
3664;BME280;1848;51.042;7.066;2022-10-31T05:10:17;53350.72;;;-147.17;86.71
3664;BME280;1848;51.042;7.066;2022-10-31T05:12:50;53350.72;;;-147.17;86.62
3664;BME280;1848;51.042;7.066;2022-10-31T05:15:19;53348.69;;;-147.17;86.43
3664;BME280;1848;51.042;7.066;2022-10-31T05:17:46;53383.13;;;-147.17;86.48
3664;BME280;1848;51.042;7.066;2022-10-31T05:20:15;53348.69;;;-147.17;86.29
3664;BME280;1848;51.042;7.066;2022-10-31T05:22:43;53348.69;;;-147.17;86.75
3664;BME280;1848;51.042;7.066;2022-10-31T05:25:10;53346.66;;;-147.17;86.78
3664;BME280;1848;51.042;7.066;2022-10-31T05:27:41;53348.69;;;-147.17;86.61
3664;BME280;1848;51.042;7.066;2022-10-31T05:30:09;53346.66;;;-147.17;86.53
3664;BME280;1848;51.042;7.066;2022-10-31T05:32:41;53352.75;;;-147.17;86.36
3664;BME280;1848;51.042;7.066;2022-10-31T05:35:10;53348.69;;;-147.17;86.46
3664;BME280;1848;51.042;7.066;2022-10-31T05:37:37;53348.69;;;-147.17;86.42
3664;BME280;1848;51.042;7.066;2022-10-31T05:40:05;53350.72;;;-147.17;86.56
3664;BME280;1848;51.042;7.066;2022-10-31T05:42:34;53348.69;;;-147.17;86.46
3664;BME280;1848;51.042;7.066;2022-10-31T05:45:00;53350.72;;;-147.17;86.46
3664;BME280;1848;51.042;7.066;2022-10-31T05:47:26;53346.66;;;-147.17;86.64
3664;BME280;1848;51.042;7.066;2022-10-31T05:49:53;53350.72;;;-147.17;86.68
3664;BME280;1848;51.042;7.066;2022-10-31T05:52:19;53348.69;;;-147.17;86.83
3664;BME280;1848;51.042;7.066;2022-10-31T05:54:46;53350.72;;;-147.17;86.69
3664;BME280;1848;51.042;7.066;2022-10-31T05:57:12;53350.72;;;-147.17;86.79
3664;BME280;1848;51.042;7.066;2022-10-31T05:59:38;53346.66;;;-147.17;86.68
3664;BME280;1848;51.042;7.066;2022-10-31T06:02:05;53348.69;;;-147.17;87.09
3664;BME280;1848;51.042;7.066;2022-10-31T06:04:31;53346.66;;;-147.17;87.30
3664;BME280;1848;51.042;7.066;2022-10-31T06:06:59;53348.69;;;-147.17;87.06
3664;BME280;1848;51.042;7.066;2022-10-31T06:09:25;53383.13;;;-147.17;87.02
3664;BME280;1848;51.042;7.066;2022-10-31T06:11:51;53381.09;;;-147.17;87.29
3664;BME280;1848;51.042;7.066;2022-10-31T06:14:17;53348.69;;;-147.17;87.40
3664;BME280;1848;51.042;7.066;2022-10-31T06:16:44;53352.75;;;-147.17;87.50
3664;BME280;1848;51.042;7.066;2022-10-31T06:19:10;53346.66;;;-147.17;87.49
3664;BME280;1848;51.042;7.066;2022-10-31T06:21:36;53350.72;;;-147.17;87.26
3664;BME280;1848;51.042;7.066;2022-10-31T06:24:03;53383.13;;;-147.17;87.30
3664;BME280;1848;51.042;7.066;2022-10-31T06:26:30;53348.69;;;-147.17;87.36
3664;BME280;1848;51.042;7.066;2022-10-31T06:28:56;53350.72;;;-147.17;87.13
3664;BME280;1848;51.042;7.066;2022-10-31T06:31:29;53348.69;;;-147.17;87.10
3664;BME280;1848;51.042;7.066;2022-10-31T06:33:56;53348.69;;;-147.17;87.10
3664;BME280;1848;51.042;7.066;2022-10-31T06:36:22;53350.72;;;-147.17;87.09
3664;BME280;1848;51.042;7.066;2022-10-31T06:38:49;53348.69;;;-147.17;87.16
3664;BME280;1848;51.042;7.066;2022-10-31T06:41:15;53348.69;;;-147.17;87.32
3664;BME280;1848;51.042;7.066;2022-10-31T06:43:42;53348.69;;;-147.17;87.28
3664;BME280;1848;51.042;7.066;2022-10-31T06:46:08;53346.66;;;-147.17;87.34
3664;BME280;1848;51.042;7.066;2022-10-31T06:48:34;53383.13;;;-147.17;87.76
3664;BME280;1848;51.042;7.066;2022-10-31T06:51:01;53348.69;;;-147.17;87.50
3664;BME280;1848;51.042;7.066;2022-10-31T06:53:28;53348.69;;;-147.17;87.29
3664;BME280;1848;51.042;7.066;2022-10-31T06:55:56;53348.69;;;-147.17;87.11
3664;BME280;1848;51.042;7.066;2022-10-31T06:58:22;53348.69;;;-147.17;87.00
3664;BME280;1848;51.042;7.066;2022-10-31T07:00:49;53348.69;;;-147.17;86.95
3664;BME280;1848;51.042;7.066;2022-10-31T07:03:15;53346.66;;;-147.17;87.03
3664;BME280;1848;51.042;7.066;2022-10-31T07:05:42;53346.66;;;-147.17;87.02
3664;BME280;1848;51.042;7.066;2022-10-31T07:08:11;53346.66;;;-147.17;86.98
3664;BME280;1848;51.042;7.066;2022-10-31T07:10:40;53348.69;;;-147.17;86.74
3664;BME280;1848;51.042;7.066;2022-10-31T07:13:11;53381.09;;;-147.17;86.63
3664;BME280;1848;51.042;7.066;2022-10-31T07:15:39;53348.69;;;-147.17;86.77
3664;BME280;1848;51.042;7.066;2022-10-31T07:18:08;53346.66;;;-147.17;86.43
3664;BME280;1848;51.042;7.066;2022-10-31T07:20:35;53350.72;;;-147.17;85.65
3664;BME280;1848;51.042;7.066;2022-10-31T07:23:02;53348.69;;;-147.17;85.21
3664;BME280;1848;51.042;7.066;2022-10-31T07:25:29;53350.72;;;-147.17;85.68
3664;BME280;1848;51.042;7.066;2022-10-31T07:27:56;53350.72;;;-147.17;85.82
3664;BME280;1848;51.042;7.066;2022-10-31T07:30:23;53350.72;;;-147.17;85.52
3664;BME280;1848;51.042;7.066;2022-10-31T07:32:50;53346.66;;;-147.17;84.41
3664;BME280;1848;51.042;7.066;2022-10-31T07:35:23;53381.09;;;-147.17;84.56
3664;BME280;1848;51.042;7.066;2022-10-31T07:37:50;53348.69;;;-147.17;85.09
3664;BME280;1848;51.042;7.066;2022-10-31T07:40:18;53348.69;;;-147.17;85.04
3664;BME280;1848;51.042;7.066;2022-10-31T07:42:46;53348.69;;;-147.17;84.72
3664;BME280;1848;51.042;7.066;2022-10-31T07:45:16;53348.69;;;-147.17;84.66
3664;BME280;1848;51.042;7.066;2022-10-31T07:47:52;53348.69;;;-147.17;84.66
3664;BME280;1848;51.042;7.066;2022-10-31T07:50:21;53352.75;;;-147.17;84.14
3664;BME280;1848;51.042;7.066;2022-10-31T07:52:48;53348.69;;;-147.17;83.72
3664;BME280;1848;51.042;7.066;2022-10-31T07:55:23;53350.72;;;-147.17;83.59
3664;BME280;1848;51.042;7.066;2022-10-31T07:58:13;53348.69;;;-147.17;82.73
3664;BME280;1848;51.042;7.066;2022-10-31T08:00:41;53346.66;;;-147.17;82.38
3664;BME280;1848;51.042;7.066;2022-10-31T08:03:13;53350.72;;;-147.17;83.07
3664;BME280;1848;51.042;7.066;2022-10-31T08:05:41;53346.66;;;-147.17;83.05
3664;BME280;1848;51.042;7.066;2022-10-31T08:08:08;53348.69;;;-147.17;82.69
3664;BME280;1848;51.042;7.066;2022-10-31T08:10:35;53346.66;;;-147.17;83.18
3664;BME280;1848;51.042;7.066;2022-10-31T08:13:07;53348.69;;;-147.17;83.29
3664;BME280;1848;51.042;7.066;2022-10-31T08:15:34;53348.69;;;-147.17;82.98
3664;BME280;1848;51.042;7.066;2022-10-31T08:18:05;53350.72;;;-147.17;82.69
3664;BME280;1848;51.042;7.066;2022-10-31T08:20:31;53346.66;;;-147.17;82.91
3664;BME280;1848;51.042;7.066;2022-10-31T08:23:00;53346.66;;;-147.17;83.34
3664;BME280;1848;51.042;7.066;2022-10-31T08:25:28;53348.69;;;-147.17;83.71
3664;BME280;1848;51.042;7.066;2022-10-31T08:28:01;53348.69;;;-147.17;83.29
3664;BME280;1848;51.042;7.066;2022-10-31T08:30:30;53383.13;;;-147.17;83.59
3664;BME280;1848;51.042;7.066;2022-10-31T08:33:10;53348.69;;;-147.17;83.23
3664;BME280;1848;51.042;7.066;2022-10-31T08:35:36;53350.72;;;-147.17;83.11
3664;BME280;1848;51.042;7.066;2022-10-31T08:38:03;53350.72;;;-147.17;83.35
3664;BME280;1848;51.042;7.066;2022-10-31T08:40:31;53348.69;;;-147.17;82.45
3664;BME280;1848;51.042;7.066;2022-10-31T08:43:17;53348.69;;;-147.17;81.93
3664;BME280;1848;51.042;7.066;2022-10-31T08:45:44;53346.66;;;-147.17;82.04
3664;BME280;1848;51.042;7.066;2022-10-31T08:48:15;53348.69;;;-147.17;80.98
3664;BME280;1848;51.042;7.066;2022-10-31T08:50:43;53348.69;;;-147.17;81.77
3664;BME280;1848;51.042;7.066;2022-10-31T08:53:17;53348.69;;;-147.17;82.48
3664;BME280;1848;51.042;7.066;2022-10-31T08:55:45;53348.69;;;-147.17;81.63
3664;BME280;1848;51.042;7.066;2022-10-31T08:58:17;53350.72;;;-147.17;81.11
3664;BME280;1848;51.042;7.066;2022-10-31T09:00:46;53350.72;;;-147.17;80.79
3664;BME280;1848;51.042;7.066;2022-10-31T09:03:19;53348.69;;;-147.17;81.00
3664;BME280;1848;51.042;7.066;2022-10-31T09:05:45;53348.69;;;-147.17;80.69
3664;BME280;1848;51.042;7.066;2022-10-31T09:08:12;53348.69;;;-147.17;81.31
3664;BME280;1848;51.042;7.066;2022-10-31T09:10:43;53348.69;;;-147.17;80.53
3664;BME280;1848;51.042;7.066;2022-10-31T09:13:15;53348.69;;;-147.17;80.93
3664;BME280;1848;51.042;7.066;2022-10-31T09:15:43;53348.69;;;-147.17;80.31
3664;BME280;1848;51.042;7.066;2022-10-31T09:18:11;53352.75;;;-147.17;79.67
3664;BME280;1848;51.042;7.066;2022-10-31T09:20:39;53350.72;;;-147.17;79.56
3664;BME280;1848;51.042;7.066;2022-10-31T09:23:09;53352.75;;;-147.17;79.77
3664;BME280;1848;51.042;7.066;2022-10-31T09:25:36;53350.72;;;-147.17;79.83
3664;BME280;1848;51.042;7.066;2022-10-31T09:28:04;53348.69;;;-147.17;80.14
3664;BME280;1848;51.042;7.066;2022-10-31T09:30:33;53348.69;;;-147.17;79.53
3664;BME280;1848;51.042;7.066;2022-10-31T09:33:01;53348.69;;;-147.17;79.60
3664;BME280;1848;51.042;7.066;2022-10-31T09:35:28;53346.66;;;-147.17;80.00
3664;BME280;1848;51.042;7.066;2022-10-31T09:37:56;53348.69;;;-147.17;80.66
3664;BME280;1848;51.042;7.066;2022-10-31T09:40:39;53350.72;;;-147.17;80.17
3664;BME280;1848;51.042;7.066;2022-10-31T09:43:28;53350.72;;;-147.17;79.61
3664;BME280;1848;51.042;7.066;2022-10-31T09:49:00;53354.75;;;-147.17;79.31
3664;BME280;1848;51.042;7.066;2022-10-31T09:51:31;53348.69;;;-147.17;79.35
3664;BME280;1848;51.042;7.066;2022-10-31T09:54:26;53350.72;;;-147.17;77.52
3664;BME280;1848;51.042;7.066;2022-10-31T09:56:48;53350.72;;;-147.17;76.78
3664;BME280;1848;51.042;7.066;2022-10-31T09:59:30;53350.72;;;-147.17;77.38
3664;BME280;1848;51.042;7.066;2022-10-31T10:02:04;53350.72;;;-147.17;72.79
3664;BME280;1848;51.042;7.066;2022-10-31T10:04:44;53350.72;;;-147.17;72.19
3664;BME280;1848;51.042;7.066;2022-10-31T10:07:29;53352.75;;;-147.17;67.62
3664;BME280;1848;51.042;7.066;2022-10-31T10:09:57;53348.69;;;-147.17;66.48
3664;BME280;1848;51.042;7.066;2022-10-31T10:18:32;53352.75;;;-147.17;59.53
3664;BME280;1848;51.042;7.066;2022-10-31T10:21:06;53350.72;;;-147.17;59.16
3664;BME280;1848;51.042;7.066;2022-10-31T10:23:53;53354.75;;;-147.17;59.72
3664;BME280;1848;51.042;7.066;2022-10-31T10:26:23;53352.75;;;-147.17;61.74
3664;BME280;1848;51.042;7.066;2022-10-31T10:28:58;53350.72;;;-147.17;61.25
3664;BME280;1848;51.042;7.066;2022-10-31T10:31:32;53348.69;;;-147.17;60.90
3664;BME280;1848;51.042;7.066;2022-10-31T10:34:10;53350.72;;;-147.17;59.58
3664;BME280;1848;51.042;7.066;2022-10-31T10:39:21;53350.72;;;-147.17;56.51
3664;BME280;1848;51.042;7.066;2022-10-31T10:41:50;53352.75;;;-147.17;56.01
3664;BME280;1848;51.042;7.066;2022-10-31T10:44:40;53350.72;;;-147.17;58.48
3664;BME280;1848;51.042;7.066;2022-10-31T10:47:36;53352.75;;;-147.17;58.81
3664;BME280;1848;51.042;7.066;2022-10-31T10:50:15;53352.75;;;-147.17;57.92
3664;BME280;1848;51.042;7.066;2022-10-31T10:56:17;53350.72;;;-147.17;59.51
3664;BME280;1848;51.042;7.066;2022-10-31T10:58:47;53354.75;;;-147.17;60.63
3664;BME280;1848;51.042;7.066;2022-10-31T11:01:14;53350.72;;;-147.17;61.77
3664;BME280;1848;51.042;7.066;2022-10-31T11:03:46;53350.72;;;-147.17;61.39
3664;BME280;1848;51.042;7.066;2022-10-31T11:06:22;53352.75;;;-147.17;60.53
3664;BME280;1848;51.042;7.066;2022-10-31T11:08:52;53350.72;;;-147.17;60.56
3664;BME280;1848;51.042;7.066;2022-10-31T11:11:25;53352.75;;;-147.17;59.09
3664;BME280;1848;51.042;7.066;2022-10-31T11:14:02;53350.72;;;-147.17;61.95
3664;BME280;1848;51.042;7.066;2022-10-31T11:16:33;53383.13;;;-147.17;62.59
3664;BME280;1848;51.042;7.066;2022-10-31T11:21:41;53352.75;;;-147.17;62.02
3664;BME280;1848;51.042;7.066;2022-10-31T11:26:37;53350.72;;;-147.17;60.43
3664;BME280;1848;51.042;7.066;2022-10-31T11:29:13;53352.75;;;-147.17;59.42
3664;BME280;1848;51.042;7.066;2022-10-31T11:31:41;53350.72;;;-147.17;60.98
3664;BME280;1848;51.042;7.066;2022-10-31T11:34:43;53352.75;;;-147.17;59.95
3664;BME280;1848;51.042;7.066;2022-10-31T11:37:15;53350.72;;;-147.17;58.18
3664;BME280;1848;51.042;7.066;2022-10-31T11:39:54;53350.72;;;-147.17;61.19
3664;BME280;1848;51.042;7.066;2022-10-31T11:42:23;53352.75;;;-147.17;58.97
3664;BME280;1848;51.042;7.066;2022-10-31T11:44:51;53352.75;;;-147.17;60.02
3664;BME280;1848;51.042;7.066;2022-10-31T11:47:29;53358.81;;;-147.17;60.13
3664;BME280;1848;51.042;7.066;2022-10-31T11:50:01;53348.69;;;-147.17;61.22
3664;BME280;1848;51.042;7.066;2022-10-31T11:52:31;53383.13;;;-147.17;59.99
3664;BME280;1848;51.042;7.066;2022-10-31T11:55:14;53350.72;;;-147.17;59.65
3664;BME280;1848;51.042;7.066;2022-10-31T11:57:50;53352.75;;;-147.17;59.37
3664;BME280;1848;51.042;7.066;2022-10-31T12:00:23;53350.72;;;-147.17;58.46
3664;BME280;1848;51.042;7.066;2022-10-31T12:02:51;53352.75;;;-147.17;57.51
3664;BME280;1848;51.042;7.066;2022-10-31T12:05:21;53352.75;;;-147.17;57.76
3664;BME280;1848;51.042;7.066;2022-10-31T12:07:49;53348.69;;;-147.17;57.81
3664;BME280;1848;51.042;7.066;2022-10-31T12:10:16;53348.69;;;-147.17;56.53
3664;BME280;1848;51.042;7.066;2022-10-31T12:12:53;53348.69;;;-147.17;53.63
3664;BME280;1848;51.042;7.066;2022-10-31T12:15:32;53350.72;;;-147.17;52.26
3664;BME280;1848;51.042;7.066;2022-10-31T12:23:30;53352.75;;;-147.17;55.35
3664;BME280;1848;51.042;7.066;2022-10-31T12:26:25;53352.75;;;-147.17;55.31
3664;BME280;1848;51.042;7.066;2022-10-31T12:29:15;53350.72;;;-147.17;53.98
3664;BME280;1848;51.042;7.066;2022-10-31T12:37:31;53352.75;;;-147.17;56.48
3664;BME280;1848;51.042;7.066;2022-10-31T12:43:30;53350.72;;;-147.17;56.05
3664;BME280;1848;51.042;7.066;2022-10-31T12:46:01;53348.69;;;-147.17;54.72
3664;BME280;1848;51.042;7.066;2022-10-31T12:51:29;53348.69;;;-147.17;54.90
3664;BME280;1848;51.042;7.066;2022-10-31T12:54:18;53352.75;;;-147.17;53.90
3664;BME280;1848;51.042;7.066;2022-10-31T12:57:52;53352.75;;;-147.17;54.23
3664;BME280;1848;51.042;7.066;2022-10-31T13:02:39;53352.75;;;-147.17;54.96
3664;BME280;1848;51.042;7.066;2022-10-31T13:05:19;53350.72;;;-147.17;53.61
3664;BME280;1848;51.042;7.066;2022-10-31T13:07:57;53350.72;;;-147.17;55.38
3664;BME280;1848;51.042;7.066;2022-10-31T13:10:41;53350.72;;;-147.17;55.94
3664;BME280;1848;51.042;7.066;2022-10-31T13:13:34;53350.72;;;-147.17;57.68
3664;BME280;1848;51.042;7.066;2022-10-31T13:16:11;53350.72;;;-147.17;56.77
3664;BME280;1848;51.042;7.066;2022-10-31T13:18:54;53350.72;;;-147.17;55.12
3664;BME280;1848;51.042;7.066;2022-10-31T13:21:26;53352.75;;;-147.17;58.07
3664;BME280;1848;51.042;7.066;2022-10-31T13:23:54;53350.72;;;-147.17;57.70
3664;BME280;1848;51.042;7.066;2022-10-31T13:26:51;53352.75;;;-147.17;58.96
3664;BME280;1848;51.042;7.066;2022-10-31T13:29:32;53350.72;;;-147.17;58.30
3664;BME280;1848;51.042;7.066;2022-10-31T13:32:03;53352.75;;;-147.17;57.45
3664;BME280;1848;51.042;7.066;2022-10-31T13:34:34;53358.81;;;-147.17;58.25
3664;BME280;1848;51.042;7.066;2022-10-31T13:37:04;53350.72;;;-147.17;56.20
3664;BME280;1848;51.042;7.066;2022-10-31T13:40:04;53352.75;;;-147.17;59.16
3664;BME280;1848;51.042;7.066;2022-10-31T13:42:48;53348.69;;;-147.17;59.44
3664;BME280;1848;51.042;7.066;2022-10-31T13:45:19;53352.75;;;-147.17;58.32
3664;BME280;1848;51.042;7.066;2022-10-31T13:50:32;53352.75;;;-147.17;58.23
3664;BME280;1848;51.042;7.066;2022-10-31T13:55:49;53350.72;;;-147.17;57.09
3664;BME280;1848;51.042;7.066;2022-10-31T13:58:27;53358.81;;;-147.17;58.81
3664;BME280;1848;51.042;7.066;2022-10-31T14:03:38;53352.75;;;-147.17;56.80
3664;BME280;1848;51.042;7.066;2022-10-31T14:06:39;53350.72;;;-147.17;58.46
3664;BME280;1848;51.042;7.066;2022-10-31T14:09:17;53348.69;;;-147.17;59.15
3664;BME280;1848;51.042;7.066;2022-10-31T14:11:46;53348.69;;;-147.17;58.68
3664;BME280;1848;51.042;7.066;2022-10-31T14:14:14;53383.13;;;-147.17;58.58
3664;BME280;1848;51.042;7.066;2022-10-31T14:16:43;53352.75;;;-147.17;58.43
3664;BME280;1848;51.042;7.066;2022-10-31T14:19:16;53348.69;;;-147.17;59.67
3664;BME280;1848;51.042;7.066;2022-10-31T14:21:47;53383.13;;;-147.17;58.95
3664;BME280;1848;51.042;7.066;2022-10-31T14:24:30;53350.72;;;-147.17;59.87